Time;durP1;ratioP1;P1;durP2;ratioP2;P2;SDS_P1;SDS_P2;PMS_P1;PMS_P2;Temp;Humidity;BMP_temperature;BMP_pressure;BME280_temperature;BME280_humidity;BME280_pressure;Samples;Min_cycle;Max_cycle;Signal;HPM_P1;HPM_P2
2022/05/05 00:00:15;;;;;;;4.07;2.65;;;11.40;99.90;;;;;;5094895;28;20024;-85
2022/05/05 00:02:41;;;;;;;5.25;2.63;;;11.30;99.90;;;;;;5095003;28;20032;-85
2022/05/05 00:05:07;;;;;;;4.07;2.20;;;11.20;99.90;;;;;;5097883;28;20046;-85
2022/05/05 00:07:33;;;;;;;4.00;2.60;;;11.10;99.90;;;;;;5098254;28;20030;-85
2022/05/05 00:14:23;;;;;;;4.13;2.70;;;11.00;99.90;;;;;;5098733;28;20019;-85
2022/05/05 00:15:28;;;;;;;3.40;2.45;;;11.00;99.90;;;;;;5116890;28;20117;-85
2022/05/05 00:17:54;;;;;;;4.18;2.85;;;11.00;99.90;;;;;;5116758;28;20471;-85
2022/05/05 00:20:20;;;;;;;3.28;2.47;;;10.90;99.90;;;;;;5098469;28;20110;-85
2022/05/05 00:22:45;;;;;;;5.72;2.63;;;10.90;99.90;;;;;;5098403;28;20015;-85
2022/05/05 00:25:11;;;;;;;3.97;2.55;;;10.80;99.90;;;;;;5098255;28;20019;-85
2022/05/05 00:27:37;;;;;;;3.80;2.15;;;10.80;99.90;;;;;;5116454;28;20031;-85
2022/05/05 00:30:03;;;;;;;3.03;2.17;;;10.80;99.90;;;;;;5098211;28;20392;-85
2022/05/05 00:32:28;;;;;;;3.35;2.30;;;10.80;99.90;;;;;;5098082;28;20027;-86
2022/05/05 00:34:54;;;;;;;7.20;2.42;;;10.80;99.90;;;;;;5098130;28;20136;-85
2022/05/05 00:37:19;;;;;;;4.43;2.40;;;10.80;99.90;;;;;;5097991;28;20028;-85
2022/05/05 00:39:45;;;;;;;3.40;2.60;;;10.80;99.90;;;;;;5097946;28;20028;-85
2022/05/05 00:42:11;;;;;;;3.63;2.42;;;10.80;99.90;;;;;;5097751;28;20059;-85
2022/05/05 00:44:37;;;;;;;4.35;2.63;;;10.70;99.90;;;;;;5097863;28;20031;-85
2022/05/05 00:47:03;;;;;;;4.25;2.72;;;10.70;99.90;;;;;;5097801;28;20416;-85
2022/05/05 00:49:29;;;;;;;3.65;2.38;;;10.70;99.90;;;;;;5097748;28;20023;-85
2022/05/05 00:51:57;;;;;;;3.80;2.40;;;10.60;99.90;;;;;;5097689;28;20402;-85
2022/05/05 00:54:23;;;;;;;4.70;2.30;;;10.60;99.90;;;;;;5115971;28;20580;-85
2022/05/05 00:56:49;;;;;;;3.00;2.40;;;10.70;99.90;;;;;;5115742;28;20038;-85
2022/05/05 00:59:15;;;;;;;3.55;2.42;;;10.70;99.90;;;;;;5097575;28;20019;-85
2022/05/05 01:01:41;;;;;;;4.47;2.70;;;10.70;99.90;;;;;;5096705;28;20119;-85
2022/05/05 01:04:10;;;;;;;3.08;1.90;;;10.70;99.90;;;;;;5113593;28;20035;-85
2022/05/05 01:06:36;;;;;;;3.60;2.45;;;10.70;99.90;;;;;;5103566;28;20032;-85
2022/05/05 01:09:02;;;;;;;3.55;2.28;;;10.70;99.90;;;;;;5097352;28;20023;-85
2022/05/05 01:11:30;;;;;;;3.88;2.53;;;10.70;99.90;;;;;;5097505;28;20365;-85
2022/05/05 01:13:56;;;;;;;3.72;2.03;;;10.70;99.90;;;;;;5115508;28;20037;-85
2022/05/05 01:16:23;;;;;;;3.45;2.17;;;10.70;99.90;;;;;;5114296;28;20023;-84
2022/05/05 01:18:51;;;;;;;3.67;2.20;;;10.70;99.90;;;;;;5097360;28;20062;-85
2022/05/05 01:21:19;;;;;;;3.10;2.08;;;10.70;99.90;;;;;;5097177;28;20391;-85
2022/05/05 01:23:45;;;;;;;4.90;2.65;;;10.70;99.90;;;;;;5097086;28;20076;-85
2022/05/05 01:28:56;;;;;;;3.45;2.22;;;10.50;99.90;;;;;;5115741;28;20080;-85
2022/05/05 01:31:22;;;;;;;3.45;1.83;;;10.50;99.90;;;;;;5096716;28;20031;-85
2022/05/05 01:33:48;;;;;;;3.25;2.20;;;10.40;99.90;;;;;;5115156;28;20020;-85
2022/05/05 01:36:14;;;;;;;4.18;2.35;;;10.30;99.90;;;;;;5096837;28;20028;-85
2022/05/05 01:38:41;;;;;;;3.22;1.98;;;10.20;99.90;;;;;;5115154;28;20109;-85
2022/05/05 01:41:09;;;;;;;3.33;2.17;;;10.20;99.90;;;;;;5096813;28;20031;-85
2022/05/05 01:43:36;;;;;;;3.10;2.00;;;10.10;99.90;;;;;;5096553;28;20027;-85
2022/05/05 01:46:02;;;;;;;3.38;2.28;;;10.10;99.90;;;;;;5113394;28;20038;-85
2022/05/05 01:48:29;;;;;;;3.88;2.20;;;10.00;99.90;;;;;;5113655;28;20480;-86
2022/05/05 01:50:55;;;;;;;3.83;1.95;;;10.00;99.90;;;;;;5096600;28;20069;-85
2022/05/05 01:53:21;;;;;;;3.13;2.20;;;10.00;99.90;;;;;;5114656;28;20019;-85
2022/05/05 01:55:46;;;;;;;5.15;2.83;;;10.10;99.90;;;;;;5096394;28;20020;-85
2022/05/05 01:58:12;;;;;;;5.55;3.35;;;10.10;99.90;;;;;;5114716;28;20016;-86
2022/05/05 02:00:38;;;;;;;5.57;3.25;;;10.00;99.90;;;;;;5096418;28;20027;-85
2022/05/05 02:03:12;;;;;;;5.55;3.03;;;10.00;99.90;;;;;;5096278;28;20368;-85
2022/05/05 02:05:40;;;;;;;6.50;2.78;;;10.00;99.90;;;;;;5094051;28;20052;-85
2022/05/05 02:08:06;;;;;;;4.00;2.75;;;10.00;99.90;;;;;;5094088;28;20074;-85
2022/05/05 02:10:32;;;;;;;4.93;2.60;;;9.90;99.90;;;;;;5112599;28;20019;-85
2022/05/05 02:12:58;;;;;;;4.53;2.60;;;9.80;99.90;;;;;;5114479;28;20473;-85
2022/05/05 02:15:24;;;;;;;4.32;2.70;;;9.80;99.90;;;;;;5096338;28;20421;-85
2022/05/05 02:17:51;;;;;;;4.15;2.70;;;9.90;99.90;;;;;;5096054;28;20023;-86
2022/05/05 02:20:17;;;;;;;4.03;2.67;;;9.90;99.90;;;;;;5114742;28;20043;-85
2022/05/05 02:22:43;;;;;;;3.40;2.35;;;9.90;99.90;;;;;;5096934;28;20020;-85
2022/05/05 02:25:09;;;;;;;3.72;2.47;;;10.00;99.90;;;;;;5095571;28;20027;-84
2022/05/05 02:28:04;;;;;;;3.00;2.20;;;10.00;99.90;;;;;;5096443;28;20027;-85
2022/05/05 02:30:30;;;;;;;3.03;1.92;;;10.00;99.90;;;;;;5096875;28;20032;-85
2022/05/05 02:32:56;;;;;;;3.22;2.30;;;10.00;99.90;;;;;;5114042;28;20027;-85
2022/05/05 02:35:23;;;;;;;3.72;2.40;;;10.00;99.90;;;;;;5095743;28;20426;-85
2022/05/05 02:40:33;;;;;;;4.35;2.70;;;9.90;99.90;;;;;;5114121;28;20077;-85
2022/05/05 02:42:59;;;;;;;3.17;2.22;;;9.90;99.90;;;;;;5095683;28;20035;-85
2022/05/05 02:45:26;;;;;;;4.05;2.90;;;9.90;99.90;;;;;;5113755;28;20035;-85
2022/05/05 02:47:52;;;;;;;4.18;2.70;;;9.90;99.90;;;;;;5113823;28;20403;-86
2022/05/05 02:50:18;;;;;;;4.85;2.90;;;9.90;99.90;;;;;;5095756;28;20392;-86
2022/05/05 02:52:44;;;;;;;5.32;2.70;;;9.90;99.90;;;;;;5113826;28;20020;-85
2022/05/05 02:55:10;;;;;;;2.90;2.22;;;9.80;99.90;;;;;;5113708;28;20027;-85
2022/05/05 02:57:36;;;;;;;4.93;2.28;;;9.80;99.90;;;;;;5095693;28;20115;-85
2022/05/05 03:00:04;;;;;;;3.17;2.10;;;9.70;99.90;;;;;;5095723;28;20118;-85
2022/05/05 03:02:31;;;;;;;3.83;2.55;;;9.70;99.90;;;;;;5095492;28;20539;-85
2022/05/05 03:04:57;;;;;;;3.40;2.38;;;9.70;99.90;;;;;;5095541;28;20024;-85
2022/05/05 03:07:23;;;;;;;5.05;2.92;;;9.70;99.90;;;;;;5113745;28;20451;-85
2022/05/05 03:09:48;;;;;;;8.68;3.33;;;9.80;99.90;;;;;;5095618;28;20019;-86
2022/05/05 03:12:14;;;;;;;7.70;4.03;;;9.80;99.90;;;;;;5095490;28;20387;-85
2022/05/05 03:14:39;;;;;;;8.18;4.35;;;9.80;99.90;;;;;;5113751;28;20379;-85
2022/05/05 03:17:05;;;;;;;8.60;3.55;;;9.80;99.90;;;;;;5114364;28;20395;-85
2022/05/05 03:19:31;;;;;;;5.50;3.30;;;9.80;99.90;;;;;;5112276;28;20019;-85
2022/05/05 03:21:57;;;;;;;5.82;3.10;;;9.80;99.90;;;;;;5113422;28;20036;-85
2022/05/05 03:24:23;;;;;;;4.18;2.97;;;9.80;99.90;;;;;;5095374;28;20038;-85
2022/05/05 03:26:49;;;;;;;4.78;3.30;;;9.80;99.90;;;;;;5095290;28;20480;-85
2022/05/05 03:29:14;;;;;;;6.25;4.03;;;9.80;99.90;;;;;;5095254;28;20412;-85
2022/05/05 03:31:40;;;;;;;5.72;3.63;;;9.90;99.90;;;;;;5113759;28;20097;-84
2022/05/05 03:34:06;;;;;;;4.72;3.47;;;9.90;99.90;;;;;;5114743;28;20019;-84
2022/05/05 03:36:33;;;;;;;8.63;4.40;;;9.90;99.90;;;;;;5097733;28;20023;-84
2022/05/05 03:38:59;;;;;;;5.55;3.90;;;9.90;99.90;;;;;;5097974;28;20069;-84
2022/05/05 03:41:25;;;;;;;6.95;4.40;;;9.90;99.90;;;;;;5099245;28;20023;-85
2022/05/05 03:43:52;;;;;;;7.60;4.80;;;9.90;99.90;;;;;;5098958;28;20070;-83
2022/05/05 03:46:18;;;;;;;6.15;4.57;;;9.80;99.90;;;;;;5098789;28;20514;-84
2022/05/05 03:48:44;;;;;;;7.32;5.00;;;9.80;99.90;;;;;;5117696;28;20023;-85
2022/05/05 03:51:10;;;;;;;7.70;4.68;;;9.80;99.90;;;;;;5117623;28;20432;-84
2022/05/05 03:53:35;;;;;;;7.25;5.13;;;9.80;99.90;;;;;;5098977;28;20057;-85
2022/05/05 03:56:02;;;;;;;7.25;4.90;;;9.80;99.90;;;;;;5098848;28;20030;-85
2022/05/05 03:58:28;;;;;;;7.32;5.25;;;9.90;99.90;;;;;;5117294;28;20480;-85
2022/05/05 04:00:53;;;;;;;8.23;5.43;;;9.90;99.90;;;;;;5117080;28;20030;-85
2022/05/05 04:03:31;;;;;;;7.15;4.85;;;10.00;99.90;;;;;;5117086;28;20063;-85
2022/05/05 04:05:58;;;;;;;7.25;4.90;;;10.00;99.90;;;;;;5098614;28;20023;-85
2022/05/05 04:08:24;;;;;;;8.55;5.32;;;10.00;99.90;;;;;;5078577;28;20194;-85
2022/05/05 04:10:50;;;;;;;7.95;5.35;;;10.00;99.90;;;;;;5083029;28;20416;-86
2022/05/05 04:13:16;;;;;;;8.50;5.22;;;10.00;99.90;;;;;;5098614;28;20015;-85
2022/05/05 04:15:42;;;;;;;7.85;5.13;;;10.00;99.90;;;;;;5116792;28;20107;-85
2022/05/05 04:18:07;;;;;;;7.10;5.07;;;10.00;99.90;;;;;;5116595;28;20020;-85
2022/05/05 04:20:33;;;;;;;6.68;5.20;;;10.00;99.90;;;;;;5098182;28;20460;-85
2022/05/05 04:22:59;;;;;;;10.88;6.38;;;10.00;99.90;;;;;;5115486;28;20031;-84
2022/05/05 04:25:25;;;;;;;19.02;12.45;;;10.00;99.90;;;;;;5116329;28;20020;-83
2022/05/05 04:27:51;;;;;;;19.42;12.07;;;10.00;99.90;;;;;;5098176;28;20028;-83
2022/05/05 04:30:17;;;;;;;23.05;14.15;;;10.00;99.90;;;;;;5115158;28;20509;-84
2022/05/05 04:32:44;;;;;;;22.13;13.77;;;10.00;99.90;;;;;;5095433;28;20110;-84
2022/05/05 04:35:10;;;;;;;22.55;12.30;;;9.90;99.90;;;;;;5115640;28;20024;-83
2022/05/05 04:37:35;;;;;;;15.55;10.20;;;9.90;99.90;;;;;;5116075;28;20462;-84
2022/05/05 04:40:01;;;;;;;18.33;10.25;;;10.00;99.90;;;;;;5097486;28;20058;-84
2022/05/05 04:42:27;;;;;;;17.27;10.73;;;10.00;99.90;;;;;;5097425;28;20116;-84
2022/05/05 04:44:53;;;;;;;21.83;11.55;;;10.00;99.90;;;;;;5097285;28;20361;-84
2022/05/05 04:47:19;;;;;;;35.72;18.90;;;10.10;99.90;;;;;;5115720;28;20028;-84
2022/05/05 04:49:44;;;;;;;45.10;22.00;;;10.10;99.90;;;;;;5097814;28;20024;-84
2022/05/05 04:52:10;;;;;;;35.97;21.38;;;10.10;99.90;;;;;;5097911;28;20111;-83
2022/05/05 04:54:36;;;;;;;21.92;13.02;;;10.10;99.90;;;;;;5097977;28;20027;-83
2022/05/05 04:57:02;;;;;;;16.77;9.07;;;10.10;99.90;;;;;;5097903;28;20031;-84
2022/05/05 04:59:27;;;;;;;13.10;7.90;;;10.10;99.90;;;;;;5098002;28;20028;-83
2022/05/05 05:01:53;;;;;;;10.05;7.22;;;10.10;99.90;;;;;;5097938;28;20024;-84
2022/05/05 05:04:19;;;;;;;11.45;7.30;;;10.10;99.90;;;;;;5116025;28;20024;-84
2022/05/05 05:06:44;;;;;;;9.98;6.65;;;10.10;99.90;;;;;;5097513;28;20031;-83
2022/05/05 05:09:10;;;;;;;11.95;6.40;;;10.20;99.90;;;;;;5097719;28;20024;-84
2022/05/05 05:11:36;;;;;;;10.88;6.50;;;10.10;99.90;;;;;;5115810;28;20476;-83
2022/05/05 05:14:02;;;;;;;14.23;8.68;;;10.20;99.90;;;;;;5097766;28;20016;-83
2022/05/05 05:16:28;;;;;;;13.63;8.57;;;10.20;99.90;;;;;;5097551;28;20031;-83
2022/05/05 05:18:54;;;;;;;16.58;9.32;;;10.20;99.90;;;;;;5097482;28;20027;-83
2022/05/05 05:21:23;;;;;;;16.23;9.63;;;10.10;99.90;;;;;;5097350;28;20023;-83
2022/05/05 05:23:49;;;;;;;14.68;9.13;;;10.10;99.90;;;;;;5097609;28;20024;-84
2022/05/05 05:26:15;;;;;;;14.05;8.77;;;10.10;99.90;;;;;;5097176;28;20387;-84
2022/05/05 05:28:41;;;;;;;12.43;8.45;;;10.00;99.90;;;;;;5097298;28;20032;-84
2022/05/05 05:31:07;;;;;;;13.35;8.10;;;10.10;99.90;;;;;;5115556;28;20467;-83
2022/05/05 05:33:33;;;;;;;12.50;7.65;;;10.10;99.90;;;;;;5097213;28;20031;-83
2022/05/05 05:35:59;;;;;;;14.25;7.68;;;10.10;99.90;;;;;;5097130;28;20485;-83
2022/05/05 05:38:25;;;;;;;12.07;8.05;;;10.10;99.90;;;;;;5115276;28;20024;-84
2022/05/05 05:40:51;;;;;;;11.45;7.70;;;10.20;99.90;;;;;;5097053;28;20024;-83
2022/05/05 05:43:17;;;;;;;11.27;8.30;;;10.20;99.90;;;;;;5096790;28;20035;-83
2022/05/05 05:45:42;;;;;;;10.55;7.68;;;10.20;99.90;;;;;;5113750;28;20023;-84
2022/05/05 05:48:08;;;;;;;11.55;7.45;;;10.20;99.90;;;;;;5096839;28;20047;-82
2022/05/05 05:50:34;;;;;;;12.45;8.38;;;10.30;99.90;;;;;;5115478;28;20026;-84
2022/05/05 05:53:00;;;;;;;21.50;8.85;;;10.30;99.90;;;;;;5115399;28;20044;-84
2022/05/05 05:55:26;;;;;;;14.50;7.70;;;10.30;99.90;;;;;;5096512;28;20026;-82
2022/05/05 05:57:52;;;;;;;12.73;7.63;;;10.30;99.90;;;;;;5115095;28;20019;-83
2022/05/05 06:00:18;;;;;;;13.27;7.93;;;10.30;99.90;;;;;;5096547;28;20058;-83
2022/05/05 06:05:28;;;;;;;10.57;7.45;;;10.40;99.90;;;;;;5115334;28;20446;-84
2022/05/05 06:08:02;;;;;;;12.18;8.23;;;10.40;99.90;;;;;;5096576;28;20031;-83
2022/05/05 06:10:36;;;;;;;12.77;8.25;;;10.40;99.90;;;;;;5114909;28;20027;-84
2022/05/05 06:13:02;;;;;;;10.43;7.57;;;10.40;99.90;;;;;;5096781;28;20058;-82
2022/05/05 06:15:55;;;;;;;10.25;6.55;;;10.40;99.90;;;;;;5096327;28;20031;-84
2022/05/05 06:18:22;;;;;;;13.35;8.27;;;10.40;99.90;;;;;;5097212;28;20039;-83
2022/05/05 06:20:47;;;;;;;10.73;7.15;;;10.50;99.90;;;;;;5097021;28;20023;-83
2022/05/05 06:23:19;;;;;;;10.23;6.88;;;10.50;99.90;;;;;;5097101;28;20357;-84
2022/05/05 06:25:44;;;;;;;8.50;6.00;;;10.60;99.90;;;;;;5096551;28;20032;-83
2022/05/05 06:28:10;;;;;;;11.85;6.88;;;10.70;99.90;;;;;;5114248;28;20065;-82
2022/05/05 06:30:35;;;;;;;10.35;7.25;;;10.70;99.90;;;;;;5113343;28;20503;-85
2022/05/05 06:33:01;;;;;;;9.48;6.25;;;10.70;99.90;;;;;;5097839;28;20057;-85
2022/05/05 06:38:19;;;;;;;7.38;4.80;;;10.90;99.90;;;;;;5113180;28;20451;-85
2022/05/05 06:40:45;;;;;;;7.47;5.20;;;10.90;99.90;;;;;;5113286;28;20061;-85
2022/05/05 06:43:11;;;;;;;7.95;4.97;;;11.00;99.90;;;;;;5096027;28;20032;-85
2022/05/05 06:45:37;;;;;;;11.32;5.28;;;11.10;99.90;;;;;;5096486;28;20020;-85
2022/05/05 06:48:03;;;;;;;6.85;4.28;;;11.20;99.90;;;;;;5095831;28;20034;-84
2022/05/05 06:50:28;;;;;;;12.07;4.82;;;11.30;99.90;;;;;;5095758;28;20110;-85
2022/05/05 06:52:54;;;;;;;14.02;4.47;;;11.40;99.90;;;;;;5114072;28;20058;-82
2022/05/05 06:55:20;;;;;;;6.40;4.22;;;11.50;99.90;;;;;;5095879;28;20028;-85
2022/05/05 06:57:46;;;;;;;6.57;4.40;;;11.60;99.90;;;;;;5095971;28;20076;-83
2022/05/05 07:00:13;;;;;;;7.10;3.63;;;11.70;99.90;;;;;;5096168;28;20023;-84
2022/05/05 07:02:39;;;;;;;4.30;3.10;;;11.80;99.90;;;;;;5095695;28;20058;-84
2022/05/05 07:05:23;;;;;;;5.43;3.10;;;12.00;99.90;;;;;;5095621;28;20024;-84
2022/05/05 07:07:49;;;;;;;5.28;3.45;;;12.00;99.90;;;;;;5112588;28;20058;-82
2022/05/05 07:12:59;;;;;;;4.85;2.95;;;12.10;99.90;;;;;;5114406;28;20567;-85
2022/05/05 07:15:25;;;;;;;4.70;2.60;;;12.20;99.90;;;;;;5116486;28;20055;-84
2022/05/05 07:17:51;;;;;;;14.90;3.63;;;12.30;99.90;;;;;;5118064;28;20020;-85
2022/05/05 07:20:16;;;;;;;6.43;3.58;;;12.40;99.90;;;;;;5099982;28;20023;-85
2022/05/05 07:22:42;;;;;;;6.22;2.88;;;12.50;99.90;;;;;;5118009;28;20024;-84
2022/05/05 07:25:09;;;;;;;6.32;3.33;;;12.50;99.90;;;;;;5099642;28;20391;-84
2022/05/05 07:27:34;;;;;;;5.40;3.17;;;12.60;99.90;;;;;;5099282;28;20123;-84
2022/05/05 07:30:00;;;;;;;4.80;2.65;;;12.60;99.90;;;;;;5099549;28;20051;-83
2022/05/05 07:32:26;;;;;;;6.60;2.92;;;12.70;99.90;;;;;;5099442;28;20023;-83
2022/05/05 07:34:51;;;;;;;7.30;3.38;;;12.80;99.90;;;;;;5099382;28;20020;-82
2022/05/05 07:37:17;;;;;;;6.53;2.88;;;12.80;99.90;;;;;;5117812;28;20467;-81
2022/05/05 07:39:42;;;;;;;6.85;2.95;;;12.90;99.90;;;;;;5099308;28;20480;-81
2022/05/05 07:42:08;;;;;;;3.55;2.72;;;13.10;99.90;;;;;;5117478;28;20495;-81
2022/05/05 07:44:34;;;;;;;7.53;3.35;;;13.30;99.90;;;;;;5117845;28;20107;-82
2022/05/05 07:47:00;;;;;;;5.28;3.20;;;13.50;99.90;;;;;;5099131;28;20575;-82
2022/05/05 07:49:26;;;;;;;3.88;2.75;;;13.60;99.90;;;;;;5099362;28;20057;-82
2022/05/05 07:51:52;;;;;;;4.05;2.90;;;13.60;99.90;;;;;;5117583;28;20044;-82
2022/05/05 07:54:34;;;;;;;3.75;2.60;;;13.60;99.90;;;;;;5117547;28;20490;-82
2022/05/05 07:57:00;;;;;;;3.92;2.50;;;13.70;99.90;;;;;;5117743;28;20395;-82
2022/05/05 07:59:26;;;;;;;4.07;2.70;;;13.80;99.90;;;;;;5118375;28;20020;-82
2022/05/05 08:01:51;;;;;;;4.32;2.83;;;13.90;99.90;;;;;;5118385;28;20035;-82
2022/05/05 08:04:17;;;;;;;5.03;2.90;;;14.00;99.90;;;;;;5099610;28;20028;-82
2022/05/05 08:06:43;;;;;;;4.25;2.65;;;14.10;99.90;;;;;;5099156;28;20104;-82
2022/05/05 08:09:09;;;;;;;5.75;3.00;;;14.20;99.90;;;;;;5099446;28;20475;-82
2022/05/05 08:11:36;;;;;;;3.17;2.30;;;14.40;99.90;;;;;;5099761;28;20058;-82
2022/05/05 08:14:03;;;;;;;3.75;2.25;;;14.50;99.90;;;;;;5098933;28;20080;-82
2022/05/05 08:16:29;;;;;;;3.00;2.00;;;14.70;99.90;;;;;;5098985;28;20088;-82
2022/05/05 08:18:54;;;;;;;7.68;2.33;;;14.80;99.90;;;;;;5116103;28;20024;-82
2022/05/05 08:21:20;;;;;;;4.22;2.20;;;15.00;99.90;;;;;;5116974;28;20103;-82
2022/05/05 08:23:46;;;;;;;3.67;1.90;;;15.20;99.90;;;;;;5115944;28;20501;-83
2022/05/05 08:28:56;;;;;;;3.22;1.65;;;15.60;99.90;;;;;;5118132;28;20479;-84
2022/05/05 08:31:22;;;;;;;2.60;1.63;;;15.80;99.90;;;;;;5117441;28;20020;-84
2022/05/05 08:33:48;;;;;;;4.28;1.63;;;15.90;99.90;;;;;;5099259;28;20019;-83
2022/05/05 08:36:14;;;;;;;3.55;1.60;;;16.00;99.90;;;;;;5117503;28;20020;-83
2022/05/05 08:38:39;;;;;;;5.05;1.80;;;16.20;99.80;;;;;;5098706;28;20392;-84
2022/05/05 08:41:12;;;;;;;3.90;1.67;;;16.30;98.10;;;;;;5116934;28;20035;-83
2022/05/05 08:43:38;;;;;;;2.75;1.77;;;16.50;97.30;;;;;;5117065;28;20115;-84
2022/05/05 08:46:04;;;;;;;2.30;1.45;;;16.70;96.20;;;;;;5098798;28;20063;-83
2022/05/05 08:48:32;;;;;;;1.90;1.35;;;16.90;96.80;;;;;;5116645;28;20020;-84
2022/05/05 08:51:00;;;;;;;2.83;1.45;;;17.10;94.50;;;;;;5098518;28;20076;-84
2022/05/05 08:53:32;;;;;;;2.88;1.20;;;17.10;93.80;;;;;;5098072;28;20392;-84
2022/05/05 08:55:59;;;;;;;1.85;1.10;;;17.20;91.70;;;;;;5098222;28;20425;-84
2022/05/05 08:58:26;;;;;;;3.10;1.35;;;17.30;91.20;;;;;;5097893;28;20027;-84
2022/05/05 09:00:53;;;;;;;2.17;1.20;;;17.50;91.30;;;;;;5098600;28;20438;-84
2022/05/05 09:03:19;;;;;;;4.63;1.38;;;17.60;90.10;;;;;;5097935;28;20461;-83
2022/05/05 09:05:50;;;;;;;2.78;1.10;;;17.70;87.70;;;;;;5097597;28;20476;-83
2022/05/05 09:08:26;;;;;;;1.77;1.20;;;17.80;85.10;;;;;;5097890;28;20051;-83
2022/05/05 09:10:57;;;;;;;2.88;1.10;;;17.90;88.20;;;;;;5114771;28;20392;-84
2022/05/05 09:13:24;;;;;;;2.17;1.25;;;18.10;86.60;;;;;;5116261;28;20031;-84
2022/05/05 09:15:51;;;;;;;2.97;1.33;;;18.20;84.50;;;;;;5114518;28;20028;-82
2022/05/05 09:18:20;;;;;;;1.60;1.10;;;18.20;82.80;;;;;;5097529;28;20027;-83
2022/05/05 09:20:48;;;;;;;2.40;1.20;;;18.40;82.00;;;;;;5115867;28;20380;-83
2022/05/05 09:26:28;;;;;;;2.55;1.17;;;18.50;80.20;;;;;;5115701;28;20038;-84
2022/05/05 09:28:54;;;;;;;1.70;1.00;;;18.40;78.90;;;;;;5098227;28;20027;-83
2022/05/05 09:31:21;;;;;;;1.42;1.02;;;18.30;81.60;;;;;;5097329;28;20024;-84
2022/05/05 09:33:47;;;;;;;2.40;1.30;;;18.30;82.10;;;;;;5097089;28;20103;-84
2022/05/05 09:36:15;;;;;;;2.08;1.42;;;18.30;82.50;;;;;;5096114;28;20023;-83
2022/05/05 09:38:54;;;;;;;3.53;1.38;;;18.20;80.80;;;;;;5115084;28;20035;-84
2022/05/05 09:41:25;;;;;;;3.22;1.05;;;18.10;82.40;;;;;;5096744;28;20063;-84
2022/05/05 09:43:53;;;;;;;1.92;1.27;;;18.20;80.50;;;;;;5115285;28;20024;-83
2022/05/05 09:46:22;;;;;;;2.78;1.25;;;18.20;78.70;;;;;;5096686;28;20395;-84
2022/05/05 09:49:07;;;;;;;1.95;1.27;;;18.20;77.50;;;;;;5096761;28;20016;-83
2022/05/05 09:57:39;;;;;;;2.85;1.20;;;18.30;79.00;;;;;;5096718;28;20399;-82
2022/05/05 09:57:41;;;;;;;1.77;1.27;;;18.40;78.40;;;;;;5115490;28;20066;-83
2022/05/05 10:00:31;;;;;;;2.10;1.15;;;18.40;78.10;;;;;;5115543;28;20049;-83
2022/05/05 10:05:46;;;;;;;2.10;1.15;;;18.60;75.40;;;;;;5116334;28;20077;-83
2022/05/05 10:08:15;;;;;;;3.28;1.38;;;18.70;74.00;;;;;;5097396;28;20050;-83
2022/05/05 10:10:42;;;;;;;1.98;1.17;;;18.80;75.30;;;;;;5097731;28;20024;-84
2022/05/05 10:13:10;;;;;;;2.25;1.20;;;18.90;75.10;;;;;;5097322;28;20019;-84
2022/05/05 10:15:37;;;;;;;3.30;1.30;;;19.00;74.60;;;;;;5098773;28;20540;-84
2022/05/05 10:18:04;;;;;;;4.10;1.40;;;19.10;72.80;;;;;;5099329;28;20502;-84
2022/05/05 10:20:32;;;;;;;3.05;1.30;;;19.10;72.60;;;;;;5099059;28;20034;-84
2022/05/05 10:23:07;;;;;;;1.65;1.00;;;19.10;70.80;;;;;;5115002;28;20020;-85
2022/05/05 10:25:37;;;;;;;2.00;1.10;;;19.10;69.80;;;;;;5114330;28;20107;-83
2022/05/05 10:28:03;;;;;;;2.17;1.10;;;19.10;69.00;;;;;;5114208;28;20427;-84
2022/05/05 10:30:36;;;;;;;1.42;1.08;;;19.10;68.20;;;;;;5114423;28;20076;-84
2022/05/05 10:33:08;;;;;;;2.00;1.45;;;19.10;65.10;;;;;;5095869;28;20019;-84
2022/05/05 10:35:47;;;;;;;1.95;1.40;;;19.00;68.00;;;;;;5095911;28;20030;-84
2022/05/05 10:38:41;;;;;;;1.73;1.33;;;18.90;67.20;;;;;;5114447;28;20445;-84
2022/05/05 10:41:39;;;;;;;2.60;1.20;;;18.90;68.50;;;;;;5114463;28;20023;-84
2022/05/05 10:44:17;;;;;;;3.50;1.20;;;18.70;67.20;;;;;;5095562;28;20499;-83
2022/05/05 10:46:52;;;;;;;;;;;18.70;69.10;;;;;;5114888;28;20496;-83
2022/05/05 10:49:33;;;;;;;1.48;0.95;;;18.80;68.10;;;;;;5113541;28;20019;-82
2022/05/05 10:52:10;;;;;;;2.75;1.13;;;18.90;70.10;;;;;;5094169;28;20019;-83
2022/05/05 10:54:47;;;;;;;1.50;1.00;;;19.00;71.90;;;;;;5095804;28;20020;-83
2022/05/05 10:57:29;;;;;;;1.50;1.00;;;19.10;69.90;;;;;;5095554;28;20028;-83
2022/05/05 11:00:07;;;;;;;;;;;19.10;68.00;;;;;;5116580;28;19908;-85
2022/05/05 11:02:33;;;;;;;;;;;19.10;68.80;;;;;;5100449;28;19904;-83
2022/05/05 11:05:17;;;;;;;;;;;19.30;68.20;;;;;;5113454;28;20291;-83
2022/05/05 11:07:43;;;;;;;;;;;19.30;69.60;;;;;;5113985;28;20413;-82
2022/05/05 11:10:29;;;;;;;;;;;19.40;70.90;;;;;;5113149;28;19904;-82
2022/05/05 11:12:54;;;;;;;;;;;19.20;68.10;;;;;;5114312;28;20377;-83
2022/05/05 11:23:49;;;;;;;;;;;19.00;68.50;;;;;;5116357;28;19915;-83
2022/05/05 11:26:16;;;;;;;;;;;19.00;70.50;;;;;;5098233;28;19911;-85
2022/05/05 11:28:42;;;;;;;;;;;18.90;71.70;;;;;;5097685;28;19915;-83
2022/05/05 11:31:19;;;;;;;;;;;18.90;70.50;;;;;;5116354;28;19908;-83
2022/05/05 11:33:48;;;;;;;;;;;18.90;71.20;;;;;;5114196;28;19919;-83
2022/05/05 11:36:14;;;;;;;;;;;19.00;70.60;;;;;;5113856;28;19912;-82
2022/05/05 11:38:41;;;;;;;;;;;19.20;70.40;;;;;;5114099;28;19915;-82
2022/05/05 11:41:07;;;;;;;;;;;19.40;72.00;;;;;;5114039;28;20275;-82
2022/05/05 11:46:17;;;;;;;;;;;19.70;70.50;;;;;;5114379;28;19934;-82
2022/05/05 11:48:43;;;;;;;;;;;19.90;70.60;;;;;;5095802;28;20280;-82
2022/05/05 11:51:10;;;;;;;;;;;19.90;69.10;;;;;;5114205;28;19937;-82
2022/05/05 11:53:35;;;;;;;;;;;19.90;71.00;;;;;;5114004;28;19908;-82
2022/05/05 11:56:01;;;;;;;;;;;20.00;68.60;;;;;;5113934;28;19908;-83
2022/05/05 12:04:00;;;;;;;;;;;20.30;69.40;;;;;;5118251;28;19929;-82
2022/05/05 12:06:27;;;;;;;;;;;20.20;65.70;;;;;;5117464;28;20364;-82
2022/05/05 12:08:53;;;;;;;;;;;20.10;70.00;;;;;;5117814;28;20034;-82
2022/05/05 12:11:19;;;;;;;;;;;20.20;65.00;;;;;;5099370;28;20018;-82
2022/05/05 12:13:44;;;;;;;;;;;20.20;65.90;;;;;;5099240;28;19955;-82
2022/05/05 12:16:10;;;;;;;;;;;20.10;67.70;;;;;;5099163;28;19957;-83
2022/05/05 12:18:52;;;;;;;;;;;19.90;68.10;;;;;;5117743;28;19907;-82
2022/05/05 12:21:23;;;;;;;;;;;19.70;66.70;;;;;;5117851;28;19957;-83
2022/05/05 12:23:59;;;;;;;;;;;19.70;68.00;;;;;;5097606;28;19915;-82
2022/05/05 12:26:35;;;;;;;;;;;19.80;69.80;;;;;;5097237;28;19930;-83
2022/05/05 12:29:01;;;;;;;;;;;19.90;68.60;;;;;;5098759;28;19995;-83
2022/05/05 12:31:30;;;;;;;;;;;19.90;67.50;;;;;;5099000;28;19914;-83
2022/05/05 12:33:56;;;;;;;;;;;19.90;69.90;;;;;;5099623;28;19908;-83
2022/05/05 12:36:28;;;;;;;;;;;20.00;69.40;;;;;;5117609;28;19907;-82
2022/05/05 12:39:12;;;;;;;;;;;20.00;67.50;;;;;;5117134;28;19908;-83
2022/05/05 12:41:38;;;;;;;;;;;20.10;69.20;;;;;;5117151;28;19912;-82
2022/05/05 12:44:12;;;;;;;;;;;20.20;65.90;;;;;;5115850;28;19916;-82
2022/05/05 12:46:51;;;;;;;;;;;20.10;66.20;;;;;;5116729;28;20380;-83
2022/05/05 12:49:35;;;;;;;;;;;20.10;66.60;;;;;;5098734;28;19912;-82
2022/05/05 12:52:02;;;;;;;;;;;20.00;70.40;;;;;;5117003;28;19908;-82
2022/05/05 12:59:56;;;;;;;;;;;19.90;69.40;;;;;;5116880;28;19915;-83
2022/05/05 13:02:21;;;;;;;;;;;19.90;68.10;;;;;;5116566;28;19908;-82
2022/05/05 13:04:48;;;;;;;;;;;19.90;66.10;;;;;;5101657;27;19908;-82
2022/05/05 13:07:14;;;;;;;;;;;19.80;67.00;;;;;;5135769;27;20389;-82
2022/05/05 13:09:39;;;;;;;;;;;19.80;68.30;;;;;;5137177;27;19908;-83
2022/05/05 13:12:05;;;;;;;;;;;19.70;68.10;;;;;;5116555;27;19912;-83
2022/05/05 13:14:31;;;;;;;;;;;19.60;67.80;;;;;;5116284;28;20302;-83
2022/05/05 13:16:58;;;;;;;;;;;19.50;67.20;;;;;;5097992;28;19908;-83
2022/05/05 13:19:25;;;;;;;;;;;19.50;68.20;;;;;;5116717;28;19915;-83
2022/05/05 13:21:51;;;;;;;;;;;19.40;68.00;;;;;;5116357;28;19957;-82
2022/05/05 13:24:17;;;;;;;;;;;19.30;68.00;;;;;;5116211;28;19912;-83
2022/05/05 13:26:43;;;;;;;;;;;19.10;68.90;;;;;;5097590;28;20123;-83
2022/05/05 13:29:09;;;;;;;;;;;19.00;69.60;;;;;;5097675;28;20427;-82
2022/05/05 13:31:35;;;;;;;;;;;18.90;69.60;;;;;;5116201;28;19947;-83
2022/05/05 13:34:00;;;;;;;;;;;18.80;70.60;;;;;;5116097;28;19960;-82
2022/05/05 13:36:26;;;;;;;;;;;18.80;70.70;;;;;;5097645;28;19908;-82
2022/05/05 13:38:52;;;;;;;;;;;18.70;69.40;;;;;;5115953;28;19908;-82
2022/05/05 13:41:17;;;;;;;;;;;18.70;69.00;;;;;;5115762;28;20002;-82
2022/05/05 13:43:43;;;;;;;;;;;18.70;69.40;;;;;;5097356;28;19958;-82
2022/05/05 13:46:09;;;;;;;;;;;18.70;70.00;;;;;;5115665;28;19947;-82
2022/05/05 13:48:36;;;;;;;;;;;18.70;70.00;;;;;;5115858;28;19911;-82
2022/05/05 13:51:03;;;;;;;;;;;18.60;70.90;;;;;;5115646;28;19914;-83
2022/05/05 13:53:29;;;;;;;;;;;18.60;70.90;;;;;;5115763;28;19915;-81
2022/05/05 13:55:55;;;;;;;;;;;18.60;70.40;;;;;;5097202;28;20284;-82